Time;durP1;ratioP1;P1;durP2;ratioP2;P2;SDS_P1;SDS_P2;PMS_P1;PMS_P2;Temp;Humidity;BMP_temperature;BMP_pressure;BME280_temperature;BME280_humidity;BME280_pressure;Samples;Min_cycle;Max_cycle;Signal;HPM_P1;HPM_P2
2022/05/14 00:01:05;;;;;;;3.65;1.33;;;22.90;38.20;;;;;;5077182;28;20009;-57
2022/05/14 00:03:31;;;;;;;2.55;1.20;;;22.90;38.20;;;;;;5077142;28;20013;-57
2022/05/14 00:06:04;;;;;;;3.30;1.45;;;22.90;38.30;;;;;;5078825;28;20013;-57
2022/05/14 00:08:31;;;;;;;2.67;1.23;;;22.90;38.30;;;;;;5079311;28;20020;-57
2022/05/14 00:13:41;;;;;;;6.78;1.35;;;22.90;38.30;;;;;;5078588;28;20028;-57
2022/05/14 00:16:07;;;;;;;4.18;1.17;;;22.90;38.40;;;;;;5076474;28;20017;-58
2022/05/14 00:18:34;;;;;;;7.43;1.60;;;22.80;38.30;;;;;;5076357;28;20016;-58
2022/05/14 00:21:00;;;;;;;3.15;1.50;;;22.80;38.40;;;;;;5076422;28;20025;-57
2022/05/14 00:23:26;;;;;;;3.15;1.13;;;22.80;38.40;;;;;;5076241;28;20023;-59
2022/05/14 00:25:52;;;;;;;3.00;1.17;;;22.80;38.40;;;;;;5075737;28;20012;-59
2022/05/14 00:28:18;;;;;;;4.43;1.42;;;22.80;38.40;;;;;;5075086;28;20027;-58
2022/05/14 00:30:45;;;;;;;3.10;1.33;;;22.80;38.40;;;;;;5074157;28;20111;-58
2022/05/14 00:33:10;;;;;;;4.68;1.35;;;22.80;38.50;;;;;;5074384;28;20040;-58
2022/05/14 00:35:39;;;;;;;4.78;1.45;;;22.80;38.50;;;;;;5074781;28;20035;-58
2022/05/14 00:38:05;;;;;;;3.95;1.50;;;22.80;38.50;;;;;;5074383;28;20104;-59
2022/05/14 00:40:37;;;;;;;3.00;1.40;;;22.80;38.50;;;;;;5074314;28;20016;-59
2022/05/14 00:43:04;;;;;;;4.65;1.73;;;22.80;38.50;;;;;;5074574;28;20017;-59
2022/05/14 00:45:31;;;;;;;3.45;1.35;;;22.80;38.60;;;;;;5076725;28;20433;-59
2022/05/14 00:47:58;;;;;;;4.05;1.65;;;22.80;38.60;;;;;;5075552;28;20044;-59
2022/05/14 00:50:34;;;;;;;6.45;1.30;;;22.80;38.60;;;;;;5058134;28;20016;-59
2022/05/14 00:53:19;;;;;;;4.47;1.40;;;22.80;38.60;;;;;;5075520;28;20019;-58
2022/05/14 00:55:47;;;;;;;4.72;1.63;;;22.80;38.60;;;;;;5076063;28;20039;-59
2022/05/14 00:58:48;;;;;;;3.25;1.40;;;22.80;38.60;;;;;;5075553;28;20096;-59
2022/05/14 01:01:14;;;;;;;4.22;1.30;;;22.80;38.70;;;;;;5074682;28;20020;-58
2022/05/14 01:03:41;;;;;;;2.00;1.13;;;22.80;38.70;;;;;;5075859;28;20039;-59
2022/05/14 01:06:08;;;;;;;2.58;1.40;;;22.70;38.60;;;;;;5076066;28;20017;-58
2022/05/14 01:08:34;;;;;;;7.80;1.63;;;22.80;38.70;;;;;;5076072;28;20095;-60
2022/05/14 01:11:00;;;;;;;4.90;1.13;;;22.70;38.70;;;;;;5076497;28;20051;-58
2022/05/14 01:13:26;;;;;;;3.10;1.27;;;22.70;38.70;;;;;;5076599;28;20398;-59
2022/05/14 01:15:54;;;;;;;2.72;1.25;;;22.70;38.70;;;;;;5075530;28;20058;-58
2022/05/14 01:18:22;;;;;;;3.72;1.40;;;22.70;38.70;;;;;;5075189;28;20487;-59
2022/05/14 01:21:01;;;;;;;2.30;1.00;;;22.70;38.70;;;;;;5075719;28;20035;-58
2022/05/14 01:26:35;;;;;;;4.65;1.27;;;22.70;38.80;;;;;;5075430;28;20395;-58
2022/05/14 01:29:10;;;;;;;4.35;1.40;;;22.70;38.80;;;;;;5074187;28;20005;-58
2022/05/14 01:31:39;;;;;;;3.70;1.30;;;22.70;38.80;;;;;;5074818;28;20099;-58
2022/05/14 01:34:08;;;;;;;4.25;1.40;;;22.70;38.80;;;;;;5074361;28;20028;-58
2022/05/14 01:36:35;;;;;;;3.58;1.20;;;22.70;38.90;;;;;;5073986;28;20016;-58
2022/05/14 01:39:01;;;;;;;4.03;1.33;;;22.70;38.90;;;;;;5073500;28;20108;-58
2022/05/14 01:41:26;;;;;;;6.18;1.30;;;22.70;38.80;;;;;;5073621;28;20480;-57
2022/05/14 01:43:53;;;;;;;4.25;1.60;;;22.70;38.90;;;;;;5073644;28;20095;-57
2022/05/14 01:46:18;;;;;;;2.80;1.30;;;22.70;38.90;;;;;;5073480;28;20056;-56
2022/05/14 01:48:45;;;;;;;3.30;1.10;;;22.60;38.90;;;;;;5073442;28;20021;-55
2022/05/14 01:51:10;;;;;;;4.20;1.50;;;22.60;38.90;;;;;;5073379;28;20043;-55
2022/05/14 01:53:37;;;;;;;3.13;1.20;;;22.60;38.90;;;;;;5074659;28;20013;-55
2022/05/14 01:56:03;;;;;;;3.45;1.38;;;22.60;38.90;;;;;;5077686;28;20056;-56
2022/05/14 01:58:38;;;;;;;2.85;1.25;;;22.60;38.90;;;;;;5077953;28;20028;-56
2022/05/14 02:01:12;;;;;;;3.97;1.23;;;22.60;38.90;;;;;;5076478;28;20023;-57
2022/05/14 02:03:39;;;;;;;5.10;1.25;;;22.60;38.90;;;;;;5077423;28;20019;-56
2022/05/14 02:06:06;;;;;;;5.70;1.60;;;22.60;38.90;;;;;;5077533;28;20025;-55
2022/05/14 02:08:33;;;;;;;4.13;1.35;;;22.60;39.00;;;;;;5077229;28;20017;-55
2022/05/14 02:10:59;;;;;;;7.28;1.40;;;22.60;39.10;;;;;;5076037;28;20028;-57
2022/05/14 02:13:25;;;;;;;4.40;1.63;;;22.60;39.10;;;;;;5077166;28;20112;-56
2022/05/14 02:15:52;;;;;;;3.28;1.30;;;22.60;39.00;;;;;;5076850;28;20021;-56
2022/05/14 02:18:19;;;;;;;4.38;1.40;;;22.60;39.10;;;;;;5076781;28;20036;-55
2022/05/14 02:20:45;;;;;;;2.70;1.40;;;22.60;39.00;;;;;;5076844;28;20025;-57
2022/05/14 02:23:12;;;;;;;2.33;1.10;;;22.60;39.10;;;;;;5077139;28;20040;-55
2022/05/14 02:25:38;;;;;;;1.98;1.20;;;22.60;39.20;;;;;;5077152;28;20020;-57
2022/05/14 02:28:04;;;;;;;5.20;1.25;;;22.60;39.10;;;;;;5077237;28;20093;-56
2022/05/14 02:30:31;;;;;;;4.72;1.33;;;22.50;39.00;;;;;;5076745;28;20013;-56
2022/05/14 02:32:58;;;;;;;3.83;1.38;;;22.60;39.10;;;;;;5076333;28;20052;-55
2022/05/14 02:35:24;;;;;;;3.20;1.13;;;22.50;39.10;;;;;;5076853;28;20074;-57
2022/05/14 02:37:50;;;;;;;2.95;1.23;;;22.50;39.60;;;;;;5075564;28;20016;-54
2022/05/14 02:40:17;;;;;;;3.22;1.17;;;22.50;39.10;;;;;;5075466;28;20009;-57
2022/05/14 02:42:42;;;;;;;2.83;1.10;;;22.60;39.20;;;;;;5075983;28;20022;-58
2022/05/14 02:45:09;;;;;;;3.70;1.40;;;22.50;39.10;;;;;;5076258;28;20009;-58
2022/05/14 02:47:36;;;;;;;1.88;1.00;;;22.50;39.20;;;;;;5074731;28;20040;-58
2022/05/14 02:50:02;;;;;;;3.40;1.17;;;22.50;39.20;;;;;;5076139;28;20091;-58
2022/05/14 02:52:28;;;;;;;2.13;1.13;;;22.50;39.20;;;;;;5076415;28;20016;-58
2022/05/14 02:54:54;;;;;;;3.22;1.30;;;22.50;39.20;;;;;;5076334;28;20020;-58
2022/05/14 02:57:20;;;;;;;2.47;1.15;;;22.50;39.20;;;;;;5076413;28;20463;-57
2022/05/14 02:59:49;;;;;;;4.10;1.10;;;22.50;39.30;;;;;;5074554;28;20586;-57
2022/05/14 03:02:15;;;;;;;3.65;1.10;;;22.50;39.30;;;;;;5075613;28;20012;-58
2022/05/14 03:04:42;;;;;;;3.45;1.38;;;22.50;39.30;;;;;;5074151;28;20017;-58
2022/05/14 03:07:09;;;;;;;3.00;1.05;;;22.50;39.30;;;;;;5075400;28;20485;-58
2022/05/14 03:09:36;;;;;;;3.85;1.42;;;22.50;39.30;;;;;;5075737;28;20040;-59
2022/05/14 03:12:07;;;;;;;2.42;1.13;;;22.50;39.30;;;;;;5075469;28;20017;-58
2022/05/14 03:14:33;;;;;;;3.13;1.25;;;22.50;39.40;;;;;;5076437;28;20017;-59
2022/05/14 03:16:59;;;;;;;3.55;1.25;;;22.50;39.40;;;;;;5077524;28;20486;-59
2022/05/14 03:19:25;;;;;;;3.67;1.20;;;22.40;39.30;;;;;;5077456;28;20029;-58
2022/05/14 03:21:52;;;;;;;1.98;1.00;;;22.50;39.40;;;;;;5076721;28;20037;-58
2022/05/14 03:24:19;;;;;;;3.72;1.63;;;22.40;39.40;;;;;;5077910;28;20360;-58
2022/05/14 03:26:44;;;;;;;3.42;1.10;;;22.40;39.40;;;;;;5077356;28;20028;-58
2022/05/14 03:29:10;;;;;;;2.60;1.40;;;22.40;39.40;;;;;;5076369;28;20069;-58
2022/05/14 03:31:37;;;;;;;2.80;1.17;;;22.40;39.40;;;;;;5078053;28;20016;-59
2022/05/14 03:34:03;;;;;;;3.95;1.48;;;22.40;39.40;;;;;;5076519;28;20052;-58
2022/05/14 03:36:30;;;;;;;4.00;1.40;;;22.40;39.40;;;;;;5076735;28;20013;-58
2022/05/14 03:38:57;;;;;;;2.85;1.23;;;22.40;39.50;;;;;;5077756;28;20025;-58
2022/05/14 03:41:23;;;;;;;2.67;1.00;;;22.40;39.50;;;;;;5077159;28;20016;-58
2022/05/14 03:43:50;;;;;;;4.07;1.33;;;22.40;39.50;;;;;;5075599;28;20013;-58
2022/05/14 03:46:16;;;;;;;3.95;1.30;;;22.40;39.50;;;;;;5076625;28;20036;-58
2022/05/14 03:48:41;;;;;;;3.05;1.05;;;22.40;39.60;;;;;;5076692;28;20467;-58
2022/05/14 03:51:08;;;;;;;3.30;1.38;;;22.40;39.60;;;;;;5076568;28;20044;-58
2022/05/14 03:53:36;;;;;;;3.15;1.38;;;22.40;39.60;;;;;;5076379;28;20020;-58
2022/05/14 03:56:02;;;;;;;4.35;1.45;;;22.40;39.60;;;;;;5076441;28;20019;-58
2022/05/14 03:58:30;;;;;;;2.78;1.17;;;22.40;39.60;;;;;;5076409;28;20021;-57
2022/05/14 04:00:56;;;;;;;2.50;1.10;;;22.40;39.60;;;;;;5076001;28;20012;-58
2022/05/14 04:03:22;;;;;;;3.58;1.02;;;22.40;39.60;;;;;;5075813;28;20044;-55
2022/05/14 04:05:48;;;;;;;4.13;1.20;;;22.40;39.70;;;;;;5075246;28;20017;-58
2022/05/14 04:08:14;;;;;;;2.80;1.02;;;22.40;39.70;;;;;;5074510;28;20017;-57
2022/05/14 04:10:40;;;;;;;2.45;1.20;;;22.40;39.70;;;;;;5075914;28;20063;-55
2022/05/14 04:13:06;;;;;;;2.55;1.00;;;22.40;39.70;;;;;;5075844;28;20017;-55
2022/05/14 04:15:33;;;;;;;3.47;1.30;;;22.30;39.70;;;;;;5074456;28;20017;-56
2022/05/14 04:17:59;;;;;;;2.15;0.98;;;22.40;39.80;;;;;;5075190;28;20024;-55
2022/05/14 04:20:25;;;;;;;3.97;1.40;;;22.30;39.70;;;;;;5075543;28;20059;-58
2022/05/14 04:22:51;;;;;;;2.90;1.10;;;22.40;39.80;;;;;;5075465;28;20036;-58
2022/05/14 04:25:18;;;;;;;3.00;1.25;;;22.30;39.80;;;;;;5076089;28;20032;-58
2022/05/14 04:27:45;;;;;;;4.10;1.48;;;22.30;39.80;;;;;;5076218;28;20138;-58
2022/05/14 04:30:11;;;;;;;3.03;1.20;;;22.30;39.80;;;;;;5075727;28;20013;-58
2022/05/14 04:32:37;;;;;;;2.78;1.45;;;22.30;39.80;;;;;;5074828;28;20479;-58
2022/05/14 04:35:03;;;;;;;3.63;1.10;;;22.30;39.90;;;;;;5074886;28;20016;-57
2022/05/14 04:37:28;;;;;;;4.53;1.38;;;22.30;39.90;;;;;;5073619;28;20044;-58
2022/05/14 04:39:55;;;;;;;2.65;1.10;;;22.30;39.90;;;;;;5074990;28;20082;-58
2022/05/14 04:42:21;;;;;;;3.65;1.30;;;22.30;39.90;;;;;;5075906;28;20103;-58
2022/05/14 04:44:46;;;;;;;2.58;1.20;;;22.30;39.90;;;;;;5075093;28;20021;-59
2022/05/14 04:47:14;;;;;;;3.20;1.02;;;22.30;39.90;;;;;;5075475;28;20126;-58
2022/05/14 04:49:41;;;;;;;3.67;1.38;;;22.30;39.90;;;;;;5075579;28;20009;-58
2022/05/14 04:52:07;;;;;;;3.50;1.65;;;22.30;39.90;;;;;;5073878;28;20024;-58
2022/05/14 04:54:34;;;;;;;3.03;1.25;;;22.30;39.90;;;;;;5075088;28;20482;-57
2022/05/14 04:57:00;;;;;;;4.88;1.35;;;22.30;40.00;;;;;;5075944;28;20016;-58
2022/05/14 04:59:27;;;;;;;3.50;1.52;;;22.30;40.00;;;;;;5075265;28;20025;-58
2022/05/14 05:04:40;;;;;;;3.95;1.30;;;22.30;40.00;;;;;;5074974;28;20047;-58
2022/05/14 05:07:06;;;;;;;2.85;1.23;;;22.30;40.00;;;;;;5056549;28;20418;-58
2022/05/14 05:09:32;;;;;;;3.53;1.10;;;22.30;40.00;;;;;;5073746;28;20402;-58
2022/05/14 05:11:59;;;;;;;1.88;1.05;;;22.30;40.00;;;;;;5074586;28;20424;-58
2022/05/14 05:14:25;;;;;;;5.07;1.25;;;22.30;40.00;;;;;;5075070;28;20095;-58
2022/05/14 05:16:54;;;;;;;2.45;0.93;;;22.30;40.10;;;;;;5074667;28;20013;-59
2022/05/14 05:19:20;;;;;;;4.75;1.30;;;22.30;40.00;;;;;;5074780;28;20067;-58
2022/05/14 05:21:45;;;;;;;2.97;1.40;;;22.30;40.10;;;;;;5072976;28;20048;-60
2022/05/14 05:24:12;;;;;;;4.00;1.40;;;22.30;40.10;;;;;;5073438;28;20043;-60
2022/05/14 05:26:37;;;;;;;5.05;1.27;;;22.30;40.10;;;;;;5074140;28;20395;-61
2022/05/14 05:29:04;;;;;;;3.13;1.25;;;22.30;40.10;;;;;;5072756;28;20091;-59
2022/05/14 05:31:31;;;;;;;4.20;1.52;;;22.30;40.10;;;;;;5072706;28;20016;-59
2022/05/14 05:33:58;;;;;;;5.05;1.40;;;22.30;40.10;;;;;;5073509;28;20047;-59
2022/05/14 05:36:24;;;;;;;3.65;1.20;;;22.30;40.10;;;;;;5073592;28;20016;-59
2022/05/14 05:38:51;;;;;;;4.40;1.10;;;22.30;40.10;;;;;;5072900;28;20032;-59
2022/05/14 05:41:18;;;;;;;2.42;1.00;;;22.30;40.10;;;;;;5073133;28;20012;-59
2022/05/14 05:43:44;;;;;;;2.45;1.00;;;22.30;40.10;;;;;;5073567;28;20062;-59
2022/05/14 05:46:11;;;;;;;3.63;1.48;;;22.30;40.10;;;;;;5072772;28;20025;-59
2022/05/14 05:48:37;;;;;;;4.40;1.27;;;22.30;40.10;;;;;;5073511;28;20017;-59
2022/05/14 05:51:03;;;;;;;2.55;1.13;;;22.30;40.10;;;;;;5073897;28;20046;-59
2022/05/14 05:58:58;;;;;;;2.97;1.20;;;22.30;40.20;;;;;;5072502;28;20039;-62
2022/05/14 06:01:24;;;;;;;2.70;1.13;;;22.30;40.10;;;;;;5072857;28;20020;-61
2022/05/14 06:03:51;;;;;;;4.78;1.40;;;22.30;40.20;;;;;;5074656;28;20015;-59
2022/05/14 06:06:20;;;;;;;7.25;1.88;;;22.30;40.20;;;;;;5073106;28;20112;-59
2022/05/14 06:08:49;;;;;;;3.65;1.33;;;22.30;40.30;;;;;;5073022;28;20471;-58
2022/05/14 06:11:15;;;;;;;4.47;1.42;;;22.30;40.30;;;;;;5071952;28;20028;-59
2022/05/14 06:13:43;;;;;;;4.00;1.23;;;22.30;40.30;;;;;;5073323;28;20021;-59
2022/05/14 06:16:12;;;;;;;5.85;1.50;;;22.30;40.30;;;;;;5073543;28;20381;-59
2022/05/14 06:18:38;;;;;;;5.45;1.73;;;22.30;40.40;;;;;;5073407;28;20052;-59
2022/05/14 06:21:06;;;;;;;3.80;1.10;;;22.30;40.40;;;;;;5073422;28;20490;-58
2022/05/14 06:23:33;;;;;;;3.42;1.20;;;22.30;40.40;;;;;;5073342;28;20017;-58
2022/05/14 06:25:59;;;;;;;3.90;1.60;;;22.30;40.40;;;;;;5073796;28;20008;-58
2022/05/14 06:28:25;;;;;;;3.00;1.20;;;22.30;40.40;;;;;;5073947;28;20532;-60
2022/05/14 06:30:51;;;;;;;4.43;1.40;;;22.30;40.50;;;;;;5073847;28;20071;-58
2022/05/14 06:33:17;;;;;;;3.58;1.40;;;22.30;40.50;;;;;;5074113;28;20506;-58
2022/05/14 06:35:43;;;;;;;3.20;1.38;;;22.30;40.50;;;;;;5073819;28;20020;-59
2022/05/14 06:38:09;;;;;;;6.97;1.40;;;22.20;40.50;;;;;;5075064;28;20029;-59
2022/05/14 06:40:39;;;;;;;5.78;1.65;;;22.30;40.60;;;;;;5075700;28;20025;-59
2022/05/14 06:43:05;;;;;;;3.90;1.20;;;22.30;40.60;;;;;;5077343;28;20016;-58
2022/05/14 06:45:31;;;;;;;4.10;1.50;;;22.30;40.60;;;;;;5077310;28;20467;-58
2022/05/14 06:47:57;;;;;;;4.88;1.60;;;22.30;40.60;;;;;;5078358;28;20013;-58
2022/05/14 06:50:24;;;;;;;6.07;1.27;;;22.30;40.70;;;;;;5079292;28;20020;-58
2022/05/14 06:52:52;;;;;;;5.22;1.50;;;22.30;40.60;;;;;;5078446;28;20021;-58
2022/05/14 06:55:20;;;;;;;3.92;1.48;;;22.30;40.60;;;;;;5077524;28;20028;-58
2022/05/14 06:57:47;;;;;;;3.45;1.40;;;22.30;40.60;;;;;;5078869;28;20012;-58
2022/05/14 07:00:13;;;;;;;3.55;1.52;;;22.30;40.60;;;;;;5078449;28;20016;-58
2022/05/14 07:02:39;;;;;;;3.65;1.60;;;22.30;40.70;;;;;;5078299;28;20009;-58
2022/05/14 07:07:51;;;;;;;6.70;1.67;;;22.30;40.70;;;;;;5076876;28;20035;-58
2022/05/14 07:10:18;;;;;;;2.65;1.27;;;22.40;40.80;;;;;;5077647;28;20025;-57
2022/05/14 07:12:43;;;;;;;3.67;1.35;;;22.40;40.90;;;;;;5077409;28;20044;-57
2022/05/14 07:15:12;;;;;;;3.92;1.77;;;22.30;40.80;;;;;;5077023;28;20104;-58
2022/05/14 07:17:38;;;;;;;4.35;1.58;;;22.30;40.90;;;;;;5077052;28;20016;-58
2022/05/14 07:20:05;;;;;;;4.90;1.80;;;22.40;41.00;;;;;;5076796;28;20020;-57
2022/05/14 07:22:31;;;;;;;4.28;1.60;;;22.30;40.90;;;;;;5076002;28;20087;-57
2022/05/14 07:24:57;;;;;;;4.63;1.45;;;22.30;40.90;;;;;;5076606;28;20032;-58
2022/05/14 07:27:23;;;;;;;6.68;1.98;;;22.30;41.00;;;;;;5075345;28;20013;-58
2022/05/14 07:29:50;;;;;;;5.65;1.98;;;22.30;41.00;;;;;;5076698;28;20082;-57
2022/05/14 07:32:17;;;;;;;3.60;1.40;;;22.40;41.20;;;;;;5075311;28;20017;-55
2022/05/14 07:34:42;;;;;;;7.35;1.90;;;22.30;41.10;;;;;;5076119;28;20016;-56
2022/05/14 07:37:22;;;;;;;5.60;1.88;;;22.30;41.20;;;;;;5076754;28;20024;-57
2022/05/14 07:40:08;;;;;;;6.22;1.58;;;22.30;41.20;;;;;;5076627;28;20032;-57
2022/05/14 07:43:00;;;;;;;4.20;1.60;;;22.40;41.30;;;;;;5076464;28;20017;-58
2022/05/14 07:45:32;;;;;;;5.43;1.60;;;22.40;41.30;;;;;;5074572;28;20046;-58
2022/05/14 07:47:58;;;;;;;4.53;1.60;;;22.40;41.40;;;;;;5076601;28;20016;-58
2022/05/14 07:50:23;;;;;;;4.22;1.67;;;22.40;41.40;;;;;;5077060;28;20013;-58
2022/05/14 07:52:51;;;;;;;4.63;1.50;;;22.40;41.50;;;;;;5077710;28;20023;-58
2022/05/14 07:55:17;;;;;;;3.72;1.67;;;22.40;41.50;;;;;;5076061;28;20562;-58
2022/05/14 07:57:43;;;;;;;5.20;1.77;;;22.40;41.50;;;;;;5075630;28;20024;-58
2022/05/14 08:00:10;;;;;;;5.35;1.58;;;22.40;41.50;;;;;;5076678;28;20463;-58
2022/05/14 08:02:36;;;;;;;4.13;1.67;;;22.40;41.50;;;;;;5058843;28;20036;-57
2022/05/14 08:05:04;;;;;;;4.22;1.40;;;22.40;41.50;;;;;;5076153;28;20040;-57
2022/05/14 08:07:31;;;;;;;6.63;2.08;;;22.40;41.40;;;;;;5076067;28;20021;-57
2022/05/14 08:09:57;;;;;;;6.45;1.80;;;22.40;41.60;;;;;;5077207;28;20013;-57
2022/05/14 08:12:22;;;;;;;6.28;1.80;;;22.40;41.50;;;;;;5075351;28;20024;-56
2022/05/14 08:14:48;;;;;;;6.05;1.90;;;22.40;41.60;;;;;;5076319;28;20467;-56
2022/05/14 08:17:17;;;;;;;4.15;1.80;;;22.40;41.60;;;;;;5075470;28;20021;-57
2022/05/14 08:19:44;;;;;;;4.50;1.92;;;22.40;41.60;;;;;;5076638;28;20031;-55
2022/05/14 08:24:54;;;;;;;3.80;1.48;;;22.50;41.70;;;;;;5075277;28;20106;-57
2022/05/14 08:27:20;;;;;;;4.65;1.80;;;22.40;41.60;;;;;;5075770;28;20020;-57
2022/05/14 08:29:47;;;;;;;6.18;2.03;;;22.40;41.60;;;;;;5073358;28;20020;-55
2022/05/14 08:32:13;;;;;;;4.50;1.67;;;22.40;41.60;;;;;;5074209;28;20020;-55
2022/05/14 08:34:39;;;;;;;4.10;1.65;;;22.40;41.70;;;;;;5056868;28;20023;-57
2022/05/14 08:37:06;;;;;;;5.22;2.00;;;22.50;41.80;;;;;;5073735;28;20028;-57
2022/05/14 08:39:32;;;;;;;4.63;2.08;;;22.40;41.70;;;;;;5075564;28;20032;-57
2022/05/14 08:41:58;;;;;;;5.22;1.45;;;22.50;41.70;;;;;;5077052;28;20012;-58
2022/05/14 08:44:31;;;;;;;5.22;1.67;;;22.50;41.80;;;;;;5077503;28;20042;-59
2022/05/14 08:47:00;;;;;;;4.60;1.60;;;22.50;42.00;;;;;;5076749;28;20013;-58
2022/05/14 08:49:36;;;;;;;5.68;2.03;;;22.50;41.80;;;;;;5077601;28;20017;-59
2022/05/14 08:52:05;;;;;;;6.65;2.10;;;22.40;41.70;;;;;;5076406;28;20017;-58
2022/05/14 08:54:32;;;;;;;4.18;1.70;;;22.50;42.10;;;;;;5075477;28;20012;-58
2022/05/14 08:57:14;;;;;;;3.63;1.55;;;22.50;42.00;;;;;;5075581;28;20046;-58
2022/05/14 08:59:49;;;;;;;6.68;1.90;;;22.50;42.10;;;;;;5076058;28;20025;-58
2022/05/14 09:02:17;;;;;;;6.00;1.50;;;22.50;41.90;;;;;;5074816;28;20013;-58
2022/05/14 09:04:44;;;;;;;4.35;1.48;;;22.50;42.10;;;;;;5074499;28;20044;-58
2022/05/14 09:07:11;;;;;;;7.90;1.63;;;22.50;42.10;;;;;;5074312;28;20464;-58
2022/05/14 09:09:55;;;;;;;4.97;1.65;;;22.50;42.00;;;;;;5073883;28;20021;-57
2022/05/14 09:12:27;;;;;;;7.72;1.98;;;22.50;42.00;;;;;;5074054;28;20012;-57
2022/05/14 09:14:58;;;;;;;4.53;1.90;;;22.50;42.00;;;;;;5073992;28;20016;-57
2022/05/14 09:17:27;;;;;;;4.68;1.98;;;22.50;42.00;;;;;;5073895;28;20032;-58
2022/05/14 09:19:53;;;;;;;7.63;2.05;;;22.50;42.10;;;;;;5073721;28;20016;-57
2022/05/14 09:22:22;;;;;;;4.03;1.55;;;22.50;42.10;;;;;;5073883;28;20115;-57
2022/05/14 09:25:24;;;;;;;5.97;1.80;;;22.50;42.10;;;;;;5073937;28;20016;-57
2022/05/14 09:27:57;;;;;;;3.35;1.50;;;22.50;42.10;;;;;;5065038;28;20025;-57
2022/05/14 09:30:40;;;;;;;3.33;1.60;;;22.50;42.00;;;;;;5072599;28;20009;-58
2022/05/14 09:33:07;;;;;;;5.78;1.80;;;22.50;42.00;;;;;;5074125;28;20023;-57
2022/05/14 09:35:34;;;;;;;4.88;1.80;;;22.50;42.10;;;;;;5072602;28;20036;-57
2022/05/14 09:38:27;;;;;;;6.63;2.08;;;22.50;42.00;;;;;;5073989;28;20016;-57
2022/05/14 09:40:55;;;;;;;5.82;1.63;;;22.50;42.20;;;;;;5074224;28;20060;-57
2022/05/14 09:43:20;;;;;;;4.63;1.70;;;22.50;42.10;;;;;;5075972;28;20009;-59
2022/05/14 09:46:00;;;;;;;2.63;1.40;;;22.50;42.10;;;;;;5075392;28;20433;-58
2022/05/14 09:48:37;;;;;;;4.20;2.08;;;22.50;42.20;;;;;;5073652;28;20108;-58
2022/05/14 09:51:08;;;;;;;4.60;1.40;;;22.50;42.30;;;;;;5073860;28;20051;-59
2022/05/14 09:53:40;;;;;;;3.35;1.70;;;22.60;42.20;;;;;;5073905;28;20024;-58
2022/05/14 09:56:26;;;;;;;3.60;1.77;;;22.50;42.20;;;;;;5074041;28;20024;-59
2022/05/14 09:59:30;;;;;;;4.55;2.00;;;22.50;42.20;;;;;;5073540;28;20540;-58
2022/05/14 10:02:15;;;;;;;4.25;1.85;;;22.60;42.30;;;;;;5073984;28;20023;-57
2022/05/14 10:05:00;;;;;;;5.10;1.85;;;22.60;42.20;;;;;;5075691;28;20036;-58
2022/05/14 10:07:47;;;;;;;4.38;1.40;;;22.60;42.40;;;;;;5076893;28;20024;-58
2022/05/14 10:10:28;;;;;;;5.25;1.95;;;22.60;42.40;;;;;;5059201;28;20154;-58
2022/05/14 10:13:20;;;;;;;4.45;1.95;;;22.60;42.40;;;;;;5074182;28;20091;-57
2022/05/14 10:16:13;;;;;;;5.78;1.83;;;22.60;42.50;;;;;;5048130;28;20043;-57
2022/05/14 10:18:44;;;;;;;4.18;1.50;;;22.50;42.80;;;;;;5077898;28;20025;-58
2022/05/14 10:21:42;;;;;;;3.55;1.80;;;22.50;42.60;;;;;;5078857;28;20039;-57
2022/05/14 10:27:31;;;;;;;4.90;2.08;;;22.60;42.60;;;;;;5079205;28;20115;-56
2022/05/14 10:29:56;;;;;;;4.97;1.80;;;22.60;42.70;;;;;;5078551;28;20066;-57
2022/05/14 10:32:25;;;;;;;4.25;1.73;;;22.60;42.60;;;;;;5077802;28;20012;-56
2022/05/14 10:34:58;;;;;;;10.15;2.20;;;22.60;42.70;;;;;;5075817;28;20070;-54
2022/05/14 10:37:52;;;;;;;5.13;2.00;;;22.60;42.40;;;;;;5076312;28;20056;-59
2022/05/14 10:40:33;;;;;;;6.13;1.65;;;22.60;42.70;;;;;;5076753;28;20032;-56
2022/05/14 10:43:04;;;;;;;9.23;2.10;;;22.60;42.90;;;;;;5076373;28;20015;-58
2022/05/14 10:45:37;;;;;;;5.80;1.98;;;22.60;42.80;;;;;;5076328;28;20008;-58
2022/05/14 10:48:19;;;;;;;6.38;2.05;;;22.70;42.70;;;;;;5076064;28;20025;-58
2022/05/14 10:50:45;;;;;;;10.70;2.50;;;22.70;42.70;;;;;;5075986;28;20374;-58
2022/05/14 10:53:10;;;;;;;9.73;2.63;;;22.70;42.80;;;;;;5077456;28;20099;-58
2022/05/14 10:55:45;;;;;;;6.07;2.20;;;22.70;42.90;;;;;;5077194;28;20518;-59
2022/05/14 10:58:19;;;;;;;6.38;2.05;;;22.70;43.00;;;;;;5077368;28;20090;-58
2022/05/14 11:00:47;;;;;;;6.55;2.40;;;22.70;42.80;;;;;;5076571;28;20016;-58
2022/05/14 11:03:26;;;;;;;5.88;2.20;;;22.70;42.60;;;;;;5075786;28;20134;-58
2022/05/14 11:06:01;;;;;;;8.60;2.40;;;22.70;42.60;;;;;;5077756;28;20013;-57
2022/05/14 11:08:48;;;;;;;7.18;2.10;;;22.80;42.70;;;;;;5077841;28;20048;-57
2022/05/14 11:11:21;;;;;;;5.47;1.92;;;22.70;42.60;;;;;;5077595;28;20052;-56
2022/05/14 11:13:59;;;;;;;6.38;2.42;;;22.80;42.70;;;;;;5077301;28;20020;-57
2022/05/14 11:16:39;;;;;;;7.55;1.88;;;22.80;42.60;;;;;;5077460;28;20051;-56
2022/05/14 11:19:07;;;;;;;7.60;1.98;;;22.80;42.50;;;;;;5077932;28;20047;-58
2022/05/14 11:21:46;;;;;;;5.28;1.92;;;22.80;42.50;;;;;;5077373;28;20049;-58
2022/05/14 11:24:13;;;;;;;11.77;2.53;;;22.80;42.40;;;;;;5075064;28;20074;-56
2022/05/14 11:26:44;;;;;;;5.85;2.08;;;22.80;42.30;;;;;;5075846;28;20017;-58
2022/05/14 11:29:17;;;;;;;5.32;1.80;;;22.90;42.30;;;;;;5076508;28;20092;-57
2022/05/14 11:32:10;;;;;;;6.45;2.05;;;22.90;42.40;;;;;;5076027;28;20040;-58
2022/05/14 11:34:36;;;;;;;5.07;1.90;;;22.90;42.30;;;;;;5075757;28;20082;-58
2022/05/14 11:37:04;;;;;;;5.82;1.80;;;22.90;42.20;;;;;;5074783;28;20016;-60
2022/05/14 11:39:36;;;;;;;5.25;1.83;;;22.90;42.10;;;;;;5074230;28;20029;-58
2022/05/14 11:42:34;;;;;;;5.50;2.03;;;22.90;42.10;;;;;;5074527;28;20036;-57
2022/05/14 11:45:11;;;;;;;5.10;1.80;;;22.90;42.00;;;;;;5053360;28;20050;-55
2022/05/14 11:47:51;;;;;;;5.07;2.03;;;22.90;42.00;;;;;;5053413;28;20021;-56
2022/05/14 11:50:18;;;;;;;6.72;2.60;;;22.90;42.00;;;;;;5053688;28;20017;-54
2022/05/14 11:53:18;;;;;;;6.47;2.40;;;22.90;41.90;;;;;;5020492;28;20017;-58
2022/05/14 11:55:57;;;;;;;6.05;2.00;;;22.90;41.90;;;;;;4993560;28;20038;-57
2022/05/14 11:58:42;;;;;;;5.57;2.08;;;23.00;41.60;;;;;;4994212;28;20038;-58
2022/05/14 12:01:13;;;;;;;5.80;2.10;;;23.00;41.70;;;;;;4995374;28;20030;-57
2022/05/14 12:03:40;;;;;;;;;;;23.00;41.70;;;;;;4994601;28;20024;-54
2022/05/14 12:06:31;;;;;;;5.20;1.70;;;23.00;41.70;;;;;;4994239;28;19913;-57
2022/05/14 12:09:24;;;;;;;6.18;1.73;;;23.00;41.70;;;;;;4994307;28;20030;-52
2022/05/14 12:11:50;;;;;;;6.32;1.90;;;23.00;41.70;;;;;;4994741;28;20036;-57
2022/05/14 12:14:20;;;;;;;5.20;2.17;;;23.00;41.60;;;;;;4995165;28;20457;-55
2022/05/14 12:16:50;;;;;;;4.63;1.77;;;23.00;41.60;;;;;;4994910;28;20033;-54
2022/05/14 12:19:39;;;;;;;7.13;1.87;;;23.00;41.50;;;;;;4993960;28;20038;-55
2022/05/14 12:22:16;;;;;;;5.80;2.40;;;23.00;41.50;;;;;;5020138;28;20290;-54
2022/05/14 12:24:56;;;;;;;6.22;1.90;;;23.10;41.50;;;;;;5032546;28;20075;-54
2022/05/14 12:27:22;;;;;;;5.97;1.90;;;23.00;41.60;;;;;;5032253;28;20064;-54
2022/05/14 12:30:13;;;;;;;6.57;2.00;;;23.00;41.60;;;;;;5032547;28;20476;-54
2022/05/14 12:35:31;;;;;;;5.22;1.80;;;23.00;41.60;;;;;;5076217;28;20082;-57
2022/05/14 12:37:58;;;;;;;7.80;2.00;;;23.00;41.40;;;;;;5074943;28;20016;-57
2022/05/14 12:40:26;;;;;;;4.28;1.90;;;23.10;41.40;;;;;;5075162;28;20016;-55
2022/05/14 12:42:52;;;;;;;6.30;1.98;;;23.10;41.30;;;;;;5074597;28;20037;-55
2022/05/14 12:45:18;;;;;;;6.35;2.10;;;23.10;41.30;;;;;;5076256;28;20013;-57
2022/05/14 12:47:44;;;;;;;6.78;2.30;;;23.00;41.30;;;;;;5075691;28;20024;-57
2022/05/14 12:50:22;;;;;;;10.23;2.00;;;23.10;41.10;;;;;;5074702;28;20116;-57
2022/05/14 12:52:56;;;;;;;7.18;2.15;;;23.10;41.90;;;;;;5075302;28;20012;-56
2022/05/14 12:55:24;;;;;;;6.78;2.03;;;23.10;41.40;;;;;;5075984;28;20081;-58
2022/05/14 12:57:49;;;;;;;10.85;2.60;;;23.10;41.20;;;;;;5075035;28;20103;-54
2022/05/14 13:00:16;;;;;;;5.07;1.90;;;23.20;40.90;;;;;;5074180;28;20088;-53
2022/05/14 13:02:46;;;;;;;7.97;2.28;;;23.20;41.10;;;;;;5073543;28;20131;-58
2022/05/14 13:05:17;;;;;;;5.25;2.15;;;23.10;41.20;;;;;;5074586;28;20013;-55
2022/05/14 13:07:47;;;;;;;;;;;23.20;41.20;;;;;;5074770;28;20090;-58
2022/05/14 13:10:17;;;;;;;5.07;2.10;;;23.20;41.20;;;;;;5074210;28;19900;-58
2022/05/14 13:12:47;;;;;;;4.97;2.08;;;23.20;41.10;;;;;;5056713;28;20035;-56
2022/05/14 13:15:14;;;;;;;8.73;2.20;;;23.20;41.10;;;;;;5073626;28;20092;-57
2022/05/14 13:17:40;;;;;;;5.90;1.73;;;23.20;41.10;;;;;;5073647;28;20095;-56
2022/05/14 13:20:08;;;;;;;4.57;1.50;;;23.30;41.10;;;;;;5072545;28;20125;-56
2022/05/14 13:22:40;;;;;;;4.60;1.75;;;23.30;41.00;;;;;;5072489;28;20037;-58
2022/05/14 13:25:24;;;;;;;;;;;23.40;41.00;;;;;;5074619;28;20016;-56
2022/05/14 13:27:51;;;;;;;5.38;2.03;;;23.40;40.90;;;;;;5074546;28;19970;-57